Kingston Norman Rogers Airport
CYGK : now visible

Airfield :











YOU CAN JOIN US ON...

 
LOGIN :

Register | Disclaimer

   EN    FR    IT 

 









Legend :    VFR   Marginal VFR   IFR   Intensive IFR   Very Intensive IFR
Visi :
Ceiling :
>= 8 km
>= 3000ft
5 to 8 km
1000 to 3000 ft
1500m to 5 km
500 to 1000 ft
800 to 1500m
200 to 500 ft
< 800m
< 200 ft
Symbols :   Thunderstorms  Fog  Heavy snow  Heavy precipitations  Wind > 20 kt






- Airport Elevation : 305 ft
- IATA code : YGK


CYGK - Kingston Norman Rogers

CURRENT METAR :
  • 161800Z 23013KT 15SM OVC035 02/M03 A2999 RMK SC8 SLP161

EXPIRED METARs :
  • 161700Z 24010KT 15SM OVC027 01/M03 A3001 RMK SC8 SLP167
  • 161600Z 23010KT 15SM OVC033 01/M03 A3002 RMK SC8 SLP171

TAF TAF CYGK
Valid from the 16 at 13:00 until the 17 at 01:00 UTC


161238Z 1613/1701 25010KT P6SM OVC030
TEMPO 1613/1622 OVC020
BECMG 1614/1616 24012G22KT
FM162200 24012KT P6SM BKN030 RMK NXT FCST BY 162000Z



MET'MAP, your aeronautical weather chart ! - Copyright ORBIFLY December 2007 - Disclaimer

ORBIFLY MET'MAP TEAM :

Programming & Development : Alexandra Zaïnal
Concept & original design : Baudouin d'Aumeries
Assistance for programming : Marc-Olivier Méhu
Technical & hardware support : Manuel Goepfert

Contact : metmap@orbifly.com




SOURCES & CREDITS :

   NOAA       Earth
Advisory